Terminal Aerodrome Forecast
Issued by NWS Cleveland, OH

Home | Current Version | Previous Version | Text Only | Print | Product List | Glossary Off
Versions: 1 2 3 4 5 6 7 8 9 10 11 12 13 14 15 16 17 18 19 20 21 22 23 24 25 26

000
FTUS41 KCLE 271734
TAFMFD
TAF
KMFD 271734Z 2718/2818 20016G26KT P6SM BKN045
      TEMPO 2718/2720 5SM -TSRA BKN030CB OVC060
     FM272000 22015G25KT P6SM BKN035
     FM280200 23012KT P6SM BKN030
     FM281500 17008KT P6SM BKN035=

USA.gov is the U.S. government's official web portal to all federal, state and local government web resources and services.